sensor_id;sensor_type;location;lat;lon;timestamp;temperature;humidity
78455;SHT31;67751;51.986;5.696;2023-04-25T00:01:08;9.9;68.0
78455;SHT31;67751;51.986;5.696;2023-04-25T00:03:40;9.9;67.8
78455;SHT31;67751;51.986;5.696;2023-04-25T00:06:10;9.8;68.2
78455;SHT31;67751;51.986;5.696;2023-04-25T00:08:40;9.8;68.3
78455;SHT31;67751;51.986;5.696;2023-04-25T00:11:10;9.7;68.0
78455;SHT31;67751;51.986;5.696;2023-04-25T00:13:39;9.7;68.1
78455;SHT31;67751;51.986;5.696;2023-04-25T00:16:09;9.7;68.2
78455;SHT31;67751;51.986;5.696;2023-04-25T00:18:42;9.7;68.3
78455;SHT31;67751;51.986;5.696;2023-04-25T00:21:13;9.6;68.3
78455;SHT31;67751;51.986;5.696;2023-04-25T00:23:45;9.6;68.5
78455;SHT31;67751;51.986;5.696;2023-04-25T00:26:15;9.6;68.5
78455;SHT31;67751;51.986;5.696;2023-04-25T00:28:44;9.6;68.2
78455;SHT31;67751;51.986;5.696;2023-04-25T00:31:14;9.6;68.2
78455;SHT31;67751;51.986;5.696;2023-04-25T00:33:44;9.6;67.6
78455;SHT31;67751;51.986;5.696;2023-04-25T00:36:14;9.6;68.1
78455;SHT31;67751;51.986;5.696;2023-04-25T00:38:44;9.6;68.2
78455;SHT31;67751;51.986;5.696;2023-04-25T00:41:16;9.6;67.7
78455;SHT31;67751;51.986;5.696;2023-04-25T00:43:48;9.6;67.5
78455;SHT31;67751;51.986;5.696;2023-04-25T00:46:18;9.6;67.7
78455;SHT31;67751;51.986;5.696;2023-04-25T00:48:47;9.6;67.5
78455;SHT31;67751;51.986;5.696;2023-04-25T00:51:20;9.6;67.4
78455;SHT31;67751;51.986;5.696;2023-04-25T00:53:51;9.6;67.5
78455;SHT31;67751;51.986;5.696;2023-04-25T00:56:21;9.5;67.5
78455;SHT31;67751;51.986;5.696;2023-04-25T00:58:53;9.5;67.4
78455;SHT31;67751;51.986;5.696;2023-04-25T01:01:24;9.5;67.1
78455;SHT31;67751;51.986;5.696;2023-04-25T01:03:54;9.4;67.3
78455;SHT31;67751;51.986;5.696;2023-04-25T01:06:27;9.4;67.4
78455;SHT31;67751;51.986;5.696;2023-04-25T01:08:56;9.4;67.7
78455;SHT31;67751;51.986;5.696;2023-04-25T01:11:27;9.4;67.4
78455;SHT31;67751;51.986;5.696;2023-04-25T01:13:56;9.4;67.4
78455;SHT31;67751;51.986;5.696;2023-04-25T01:16:26;9.3;67.4
78455;SHT31;67751;51.986;5.696;2023-04-25T01:18:57;9.3;67.4
78455;SHT31;67751;51.986;5.696;2023-04-25T01:21:27;9.3;67.6
78455;SHT31;67751;51.986;5.696;2023-04-25T01:23:58;9.3;67.6
78455;SHT31;67751;51.986;5.696;2023-04-25T01:26:29;9.3;67.6
78455;SHT31;67751;51.986;5.696;2023-04-25T01:28:58;9.2;67.8
78455;SHT31;67751;51.986;5.696;2023-04-25T01:31:30;9.2;68.3
78455;SHT31;67751;51.986;5.696;2023-04-25T01:34:01;9.2;68.7
78455;SHT31;67751;51.986;5.696;2023-04-25T01:36:30;9.1;68.5
78455;SHT31;67751;51.986;5.696;2023-04-25T01:39:00;9.1;68.5
78455;SHT31;67751;51.986;5.696;2023-04-25T01:41:31;9.1;68.7
78455;SHT31;67751;51.986;5.696;2023-04-25T01:44:02;9.1;68.6
78455;SHT31;67751;51.986;5.696;2023-04-25T01:46:33;9.1;68.6
78455;SHT31;67751;51.986;5.696;2023-04-25T01:49:03;9.1;68.3
78455;SHT31;67751;51.986;5.696;2023-04-25T01:51:33;9.1;68.2
78455;SHT31;67751;51.986;5.696;2023-04-25T01:54:03;9.0;68.6
78455;SHT31;67751;51.986;5.696;2023-04-25T01:56:37;9.0;69.1
78455;SHT31;67751;51.986;5.696;2023-04-25T01:59:07;9.0;68.9
78455;SHT31;67751;51.986;5.696;2023-04-25T02:01:37;9.0;68.4
78455;SHT31;67751;51.986;5.696;2023-04-25T02:04:08;9.0;68.7
78455;SHT31;67751;51.986;5.696;2023-04-25T02:06:40;9.0;69.4
78455;SHT31;67751;51.986;5.696;2023-04-25T02:09:09;9.0;69.5
78455;SHT31;67751;51.986;5.696;2023-04-25T02:11:39;9.0;69.0
78455;SHT31;67751;51.986;5.696;2023-04-25T02:14:09;9.0;68.6
78455;SHT31;67751;51.986;5.696;2023-04-25T02:16:38;9.0;68.3
78455;SHT31;67751;51.986;5.696;2023-04-25T02:19:10;9.0;68.5
78455;SHT31;67751;51.986;5.696;2023-04-25T02:21:40;9.0;68.4
78455;SHT31;67751;51.986;5.696;2023-04-25T02:24:10;9.0;68.0
78455;SHT31;67751;51.986;5.696;2023-04-25T02:26:39;9.0;68.6
78455;SHT31;67751;51.986;5.696;2023-04-25T02:29:09;9.0;67.5
78455;SHT31;67751;51.986;5.696;2023-04-25T02:31:39;8.9;67.8
78455;SHT31;67751;51.986;5.696;2023-04-25T02:34:09;8.9;68.0
78455;SHT31;67751;51.986;5.696;2023-04-25T02:36:38;8.9;67.9
78455;SHT31;67751;51.986;5.696;2023-04-25T02:39:08;8.9;67.5
78455;SHT31;67751;51.986;5.696;2023-04-25T02:41:38;8.9;67.3
78455;SHT31;67751;51.986;5.696;2023-04-25T02:44:07;8.9;67.1
78455;SHT31;67751;51.986;5.696;2023-04-25T02:46:37;8.9;66.6
78455;SHT31;67751;51.986;5.696;2023-04-25T02:49:06;8.8;66.7
78455;SHT31;67751;51.986;5.696;2023-04-25T02:51:37;8.8;66.3
78455;SHT31;67751;51.986;5.696;2023-04-25T02:54:06;8.7;66.8
78455;SHT31;67751;51.986;5.696;2023-04-25T02:56:36;8.7;66.9
78455;SHT31;67751;51.986;5.696;2023-04-25T02:59:06;8.7;67.1
78455;SHT31;67751;51.986;5.696;2023-04-25T03:01:35;8.6;66.6
78455;SHT31;67751;51.986;5.696;2023-04-25T03:04:05;8.6;66.7
78455;SHT31;67751;51.986;5.696;2023-04-25T03:06:35;8.6;66.7
78455;SHT31;67751;51.986;5.696;2023-04-25T03:09:04;8.6;66.5
78455;SHT31;67751;51.986;5.696;2023-04-25T03:11:34;8.6;66.4
78455;SHT31;67751;51.986;5.696;2023-04-25T03:14:04;8.5;66.7
78455;SHT31;67751;51.986;5.696;2023-04-25T03:16:34;8.5;66.6
78455;SHT31;67751;51.986;5.696;2023-04-25T03:19:04;8.5;66.8
78455;SHT31;67751;51.986;5.696;2023-04-25T03:21:35;8.5;66.2
78455;SHT31;67751;51.986;5.696;2023-04-25T03:24:05;8.5;65.7
78455;SHT31;67751;51.986;5.696;2023-04-25T03:26:35;8.5;66.7
78455;SHT31;67751;51.986;5.696;2023-04-25T03:29:06;8.4;66.3
78455;SHT31;67751;51.986;5.696;2023-04-25T03:31:36;8.4;66.1
78455;SHT31;67751;51.986;5.696;2023-04-25T03:34:05;8.4;66.9
78455;SHT31;67751;51.986;5.696;2023-04-25T03:36:35;8.4;66.6
78455;SHT31;67751;51.986;5.696;2023-04-25T03:39:04;8.3;67.4
78455;SHT31;67751;51.986;5.696;2023-04-25T03:41:34;8.3;68.0
78455;SHT31;67751;51.986;5.696;2023-04-25T03:44:04;8.3;67.5
78455;SHT31;67751;51.986;5.696;2023-04-25T03:46:34;8.3;67.6
78455;SHT31;67751;51.986;5.696;2023-04-25T03:49:03;8.3;67.6
78455;SHT31;67751;51.986;5.696;2023-04-25T03:51:33;8.3;67.5
78455;SHT31;67751;51.986;5.696;2023-04-25T03:54:03;8.3;67.7
78455;SHT31;67751;51.986;5.696;2023-04-25T03:56:35;8.3;66.8
78455;SHT31;67751;51.986;5.696;2023-04-25T03:59:04;8.3;66.4
78455;SHT31;67751;51.986;5.696;2023-04-25T04:01:35;8.3;66.3
78455;SHT31;67751;51.986;5.696;2023-04-25T04:04:05;8.3;66.1
78455;SHT31;67751;51.986;5.696;2023-04-25T04:06:34;8.3;66.7
78455;SHT31;67751;51.986;5.696;2023-04-25T04:09:04;8.3;66.3
78455;SHT31;67751;51.986;5.696;2023-04-25T04:11:37;8.2;66.8
78455;SHT31;67751;51.986;5.696;2023-04-25T04:14:08;8.2;66.8
78455;SHT31;67751;51.986;5.696;2023-04-25T04:16:37;8.2;67.3
78455;SHT31;67751;51.986;5.696;2023-04-25T04:19:07;8.2;67.0
78455;SHT31;67751;51.986;5.696;2023-04-25T04:21:36;8.2;66.9
78455;SHT31;67751;51.986;5.696;2023-04-25T04:24:06;8.2;67.2
78455;SHT31;67751;51.986;5.696;2023-04-25T04:26:36;8.1;67.5
78455;SHT31;67751;51.986;5.696;2023-04-25T04:29:06;8.1;67.8
78455;SHT31;67751;51.986;5.696;2023-04-25T04:31:37;8.1;67.5
78455;SHT31;67751;51.986;5.696;2023-04-25T04:34:09;8.1;67.8
78455;SHT31;67751;51.986;5.696;2023-04-25T04:36:40;8.1;68.1
78455;SHT31;67751;51.986;5.696;2023-04-25T04:39:09;8.1;68.3
78455;SHT31;67751;51.986;5.696;2023-04-25T04:41:40;8.1;68.7
78455;SHT31;67751;51.986;5.696;2023-04-25T04:44:10;8.1;68.3
78455;SHT31;67751;51.986;5.696;2023-04-25T04:46:39;8.1;68.2
78455;SHT31;67751;51.986;5.696;2023-04-25T04:49:11;8.2;68.6
78455;SHT31;67751;51.986;5.696;2023-04-25T04:51:41;8.2;68.9
78455;SHT31;67751;51.986;5.696;2023-04-25T04:54:12;8.2;68.7
78455;SHT31;67751;51.986;5.696;2023-04-25T04:56:41;8.2;69.0
78455;SHT31;67751;51.986;5.696;2023-04-25T04:59:13;8.2;68.8
78455;SHT31;67751;51.986;5.696;2023-04-25T05:01:42;8.2;69.2
78455;SHT31;67751;51.986;5.696;2023-04-25T05:04:13;8.3;69.0
78455;SHT31;67751;51.986;5.696;2023-04-25T05:06:42;8.3;69.4
78455;SHT31;67751;51.986;5.696;2023-04-25T05:09:12;8.3;69.3
78455;SHT31;67751;51.986;5.696;2023-04-25T05:11:42;8.3;69.4
78455;SHT31;67751;51.986;5.696;2023-04-25T05:14:11;8.3;69.6
78455;SHT31;67751;51.986;5.696;2023-04-25T05:16:42;8.4;69.8
78455;SHT31;67751;51.986;5.696;2023-04-25T05:19:13;8.4;69.1
78455;SHT31;67751;51.986;5.696;2023-04-25T05:21:43;8.4;68.0
78455;SHT31;67751;51.986;5.696;2023-04-25T05:24:12;8.4;68.3
78455;SHT31;67751;51.986;5.696;2023-04-25T05:26:42;8.5;67.8
78455;SHT31;67751;51.986;5.696;2023-04-25T05:29:11;8.5;67.5
78455;SHT31;67751;51.986;5.696;2023-04-25T05:31:43;8.5;66.6
78455;SHT31;67751;51.986;5.696;2023-04-25T05:34:13;8.5;66.8
78455;SHT31;67751;51.986;5.696;2023-04-25T05:36:44;8.6;67.6
78455;SHT31;67751;51.986;5.696;2023-04-25T05:39:16;8.6;68.3
78455;SHT31;67751;51.986;5.696;2023-04-25T05:41:48;8.6;67.8
78455;SHT31;67751;51.986;5.696;2023-04-25T05:44:17;8.6;68.2
78455;SHT31;67751;51.986;5.696;2023-04-25T05:46:47;8.7;67.4
78455;SHT31;67751;51.986;5.696;2023-04-25T05:49:17;8.7;68.3
78455;SHT31;67751;51.986;5.696;2023-04-25T05:51:46;8.7;68.8
78455;SHT31;67751;51.986;5.696;2023-04-25T05:54:16;8.8;66.2
78455;SHT31;67751;51.986;5.696;2023-04-25T05:56:45;8.8;66.1
78455;SHT31;67751;51.986;5.696;2023-04-25T05:59:15;8.8;67.4
78455;SHT31;67751;51.986;5.696;2023-04-25T06:01:44;8.8;67.2
78455;SHT31;67751;51.986;5.696;2023-04-25T06:04:14;8.8;65.5
78455;SHT31;67751;51.986;5.696;2023-04-25T06:06:43;8.9;67.0
78455;SHT31;67751;51.986;5.696;2023-04-25T06:09:13;8.9;67.6
78455;SHT31;67751;51.986;5.696;2023-04-25T06:11:43;8.9;65.9
78455;SHT31;67751;51.986;5.696;2023-04-25T06:14:14;8.9;65.0
78455;SHT31;67751;51.986;5.696;2023-04-25T06:16:44;8.9;65.9
78455;SHT31;67751;51.986;5.696;2023-04-25T06:19:13;9.0;65.3
78455;SHT31;67751;51.986;5.696;2023-04-25T06:21:44;9.0;65.3
78455;SHT31;67751;51.986;5.696;2023-04-25T06:24:13;9.0;66.2
78455;SHT31;67751;51.986;5.696;2023-04-25T06:26:43;9.0;64.0
78455;SHT31;67751;51.986;5.696;2023-04-25T06:29:14;9.0;63.8
78455;SHT31;67751;51.986;5.696;2023-04-25T06:31:44;9.1;64.0
78455;SHT31;67751;51.986;5.696;2023-04-25T06:34:15;9.1;64.8
78455;SHT31;67751;51.986;5.696;2023-04-25T06:36:45;9.1;66.7
78455;SHT31;67751;51.986;5.696;2023-04-25T06:39:16;9.1;65.3
78455;SHT31;67751;51.986;5.696;2023-04-25T06:41:47;9.2;65.0
78455;SHT31;67751;51.986;5.696;2023-04-25T06:44:16;9.2;67.2
78455;SHT31;67751;51.986;5.696;2023-04-25T06:46:46;9.2;66.6
78455;SHT31;67751;51.986;5.696;2023-04-25T06:49:15;9.2;63.8
78455;SHT31;67751;51.986;5.696;2023-04-25T06:51:47;9.3;63.6
78455;SHT31;67751;51.986;5.696;2023-04-25T06:54:16;9.3;62.7
78455;SHT31;67751;51.986;5.696;2023-04-25T06:56:47;9.3;62.2
78455;SHT31;67751;51.986;5.696;2023-04-25T06:59:17;9.3;62.3
78455;SHT31;67751;51.986;5.696;2023-04-25T07:01:46;9.3;63.3
78455;SHT31;67751;51.986;5.696;2023-04-25T07:04:16;9.3;62.3
78455;SHT31;67751;51.986;5.696;2023-04-25T07:06:45;9.2;62.5
78455;SHT31;67751;51.986;5.696;2023-04-25T07:09:16;9.2;63.7
78455;SHT31;67751;51.986;5.696;2023-04-25T07:11:46;9.2;61.2
78455;SHT31;67751;51.986;5.696;2023-04-25T07:14:16;9.3;61.8
78455;SHT31;67751;51.986;5.696;2023-04-25T07:16:45;9.3;62.0
78455;SHT31;67751;51.986;5.696;2023-04-25T07:19:15;9.3;60.1
78455;SHT31;67751;51.986;5.696;2023-04-25T07:21:44;9.3;60.8
78455;SHT31;67751;51.986;5.696;2023-04-25T07:24:14;9.3;62.9
78455;SHT31;67751;51.986;5.696;2023-04-25T07:26:44;9.3;62.5
78455;SHT31;67751;51.986;5.696;2023-04-25T07:29:14;9.4;63.5
78455;SHT31;67751;51.986;5.696;2023-04-25T07:31:43;9.4;62.2
78455;SHT31;67751;51.986;5.696;2023-04-25T07:34:15;9.4;62.9
78455;SHT31;67751;51.986;5.696;2023-04-25T07:36:46;9.5;60.5
78455;SHT31;67751;51.986;5.696;2023-04-25T07:39:16;9.5;60.5
78455;SHT31;67751;51.986;5.696;2023-04-25T07:41:45;9.6;64.5
78455;SHT31;67751;51.986;5.696;2023-04-25T07:44:15;9.6;61.7
78455;SHT31;67751;51.986;5.696;2023-04-25T07:46:44;9.6;62.1
78455;SHT31;67751;51.986;5.696;2023-04-25T07:49:14;9.7;61.4
78455;SHT31;67751;51.986;5.696;2023-04-25T07:51:43;9.7;61.0
78455;SHT31;67751;51.986;5.696;2023-04-25T07:54:15;9.7;63.9
78455;SHT31;67751;51.986;5.696;2023-04-25T07:56:44;9.7;62.1
78455;SHT31;67751;51.986;5.696;2023-04-25T07:59:14;9.8;61.8
78455;SHT31;67751;51.986;5.696;2023-04-25T08:01:43;9.8;61.0
78455;SHT31;67751;51.986;5.696;2023-04-25T08:04:13;9.8;61.6
78455;SHT31;67751;51.986;5.696;2023-04-25T08:06:43;9.8;60.9
78455;SHT31;67751;51.986;5.696;2023-04-25T08:09:13;9.8;62.1
78455;SHT31;67751;51.986;5.696;2023-04-25T08:11:43;9.9;64.0
78455;SHT31;67751;51.986;5.696;2023-04-25T08:14:13;9.9;59.7
78455;SHT31;67751;51.986;5.696;2023-04-25T08:16:50;9.9;58.2
78455;SHT31;67751;51.986;5.696;2023-04-25T08:19:19;10.0;57.4
78455;SHT31;67751;51.986;5.696;2023-04-25T08:21:49;10.0;57.9
78455;SHT31;67751;51.986;5.696;2023-04-25T08:24:19;10.0;56.6
78455;SHT31;67751;51.986;5.696;2023-04-25T08:26:48;10.1;56.7
78455;SHT31;67751;51.986;5.696;2023-04-25T08:29:20;10.1;58.3
78455;SHT31;67751;51.986;5.696;2023-04-25T08:31:51;10.1;57.5
78455;SHT31;67751;51.986;5.696;2023-04-25T08:34:23;10.1;57.2
78455;SHT31;67751;51.986;5.696;2023-04-25T08:36:53;10.2;58.7
78455;SHT31;67751;51.986;5.696;2023-04-25T08:39:22;10.2;58.0
78455;SHT31;67751;51.986;5.696;2023-04-25T08:41:52;10.2;58.9
78455;SHT31;67751;51.986;5.696;2023-04-25T08:44:23;10.2;56.1
78455;SHT31;67751;51.986;5.696;2023-04-25T08:46:55;10.3;56.1
78455;SHT31;67751;51.986;5.696;2023-04-25T08:49:26;10.3;56.9
78455;SHT31;67751;51.986;5.696;2023-04-25T08:51:59;10.3;57.7
78455;SHT31;67751;51.986;5.696;2023-04-25T08:54:32;10.3;53.6
78455;SHT31;67751;51.986;5.696;2023-04-25T08:57:02;10.4;52.9
78455;SHT31;67751;51.986;5.696;2023-04-25T08:59:33;10.4;55.5
78455;SHT31;67751;51.986;5.696;2023-04-25T09:02:03;10.5;53.2
78455;SHT31;67751;51.986;5.696;2023-04-25T09:04:33;10.5;50.4
78455;SHT31;67751;51.986;5.696;2023-04-25T09:07:03;10.5;51.2
78455;SHT31;67751;51.986;5.696;2023-04-25T09:09:34;10.5;52.6
78455;SHT31;67751;51.986;5.696;2023-04-25T09:12:05;10.4;56.7
78455;SHT31;67751;51.986;5.696;2023-04-25T09:14:34;10.2;58.8
78455;SHT31;67751;51.986;5.696;2023-04-25T09:17:05;10.1;61.6
78455;SHT31;67751;51.986;5.696;2023-04-25T09:19:36;10.1;59.7
78455;SHT31;67751;51.986;5.696;2023-04-25T09:22:08;10.0;59.0
78455;SHT31;67751;51.986;5.696;2023-04-25T09:24:39;10.0;62.1
78455;SHT31;67751;51.986;5.696;2023-04-25T09:27:13;9.9;62.3
78455;SHT31;67751;51.986;5.696;2023-04-25T09:29:46;9.9;62.5
78455;SHT31;67751;51.986;5.696;2023-04-25T09:32:19;9.9;59.2
78455;SHT31;67751;51.986;5.696;2023-04-25T09:34:50;9.9;63.4
78455;SHT31;67751;51.986;5.696;2023-04-25T09:37:22;9.9;60.3
78455;SHT31;67751;51.986;5.696;2023-04-25T09:39:53;9.9;60.2
78455;SHT31;67751;51.986;5.696;2023-04-25T09:42:25;9.9;61.9
78455;SHT31;67751;51.986;5.696;2023-04-25T09:44:57;10.0;56.7
78455;SHT31;67751;51.986;5.696;2023-04-25T09:47:29;10.0;60.2
78455;SHT31;67751;51.986;5.696;2023-04-25T09:49:59;10.1;54.1
78455;SHT31;67751;51.986;5.696;2023-04-25T09:52:28;10.2;55.7
78455;SHT31;67751;51.986;5.696;2023-04-25T09:54:58;10.2;57.8
78455;SHT31;67751;51.986;5.696;2023-04-25T09:57:28;10.3;53.4
78455;SHT31;67751;51.986;5.696;2023-04-25T10:00:00;10.4;54.0
78455;SHT31;67751;51.986;5.696;2023-04-25T10:02:40;10.5;53.9
78455;SHT31;67751;51.986;5.696;2023-04-25T10:05:12;10.6;51.8
78455;SHT31;67751;51.986;5.696;2023-04-25T10:07:42;10.7;51.9
78455;SHT31;67751;51.986;5.696;2023-04-25T10:10:13;10.8;51.1
78455;SHT31;67751;51.986;5.696;2023-04-25T10:12:44;10.8;47.0
78455;SHT31;67751;51.986;5.696;2023-04-25T10:15:15;10.8;49.5
78455;SHT31;67751;51.986;5.696;2023-04-25T10:17:44;10.9;53.9
78455;SHT31;67751;51.986;5.696;2023-04-25T10:20:14;10.9;50.1
78455;SHT31;67751;51.986;5.696;2023-04-25T10:22:45;10.9;50.4
78455;SHT31;67751;51.986;5.696;2023-04-25T10:25:23;10.9;52.0
78455;SHT31;67751;51.986;5.696;2023-04-25T10:27:53;10.9;51.3
78455;SHT31;67751;51.986;5.696;2023-04-25T10:30:23;10.9;51.6
78455;SHT31;67751;51.986;5.696;2023-04-25T10:32:55;10.9;51.0
78455;SHT31;67751;51.986;5.696;2023-04-25T10:35:27;10.9;50.3
78455;SHT31;67751;51.986;5.696;2023-04-25T10:38:10;10.9;49.7
78455;SHT31;67751;51.986;5.696;2023-04-25T10:40:40;10.9;51.2
78455;SHT31;67751;51.986;5.696;2023-04-25T10:44:01;10.9;51.9
78455;SHT31;67751;51.986;5.696;2023-04-25T10:46:30;10.9;49.1
78455;SHT31;67751;51.986;5.696;2023-04-25T10:49:03;10.9;48.9
78455;SHT31;67751;51.986;5.696;2023-04-25T10:51:34;10.9;47.6
78455;SHT31;67751;51.986;5.696;2023-04-25T10:54:06;10.9;49.7
78455;SHT31;67751;51.986;5.696;2023-04-25T10:56:41;10.9;48.5
78455;SHT31;67751;51.986;5.696;2023-04-25T10:59:14;10.9;51.2
78455;SHT31;67751;51.986;5.696;2023-04-25T11:01:46;10.9;48.9
78455;SHT31;67751;51.986;5.696;2023-04-25T11:04:24;11.0;48.6
78455;SHT31;67751;51.986;5.696;2023-04-25T11:07:04;11.0;45.3
78455;SHT31;67751;51.986;5.696;2023-04-25T11:09:39;11.0;48.3
78455;SHT31;67751;51.986;5.696;2023-04-25T11:12:09;11.0;47.7
78455;SHT31;67751;51.986;5.696;2023-04-25T11:14:41;11.1;47.8
78455;SHT31;67751;51.986;5.696;2023-04-25T11:17:10;11.1;46.3
78455;SHT31;67751;51.986;5.696;2023-04-25T11:19:40;11.1;44.0
78455;SHT31;67751;51.986;5.696;2023-04-25T11:22:10;11.2;43.5
78455;SHT31;67751;51.986;5.696;2023-04-25T11:24:40;11.2;47.3
78455;SHT31;67751;51.986;5.696;2023-04-25T11:27:10;11.2;46.7
78455;SHT31;67751;51.986;5.696;2023-04-25T11:29:40;11.2;48.9
78455;SHT31;67751;51.986;5.696;2023-04-25T11:32:10;11.3;46.5
78455;SHT31;67751;51.986;5.696;2023-04-25T11:34:43;11.3;45.7
78455;SHT31;67751;51.986;5.696;2023-04-25T11:37:15;11.3;45.9
78455;SHT31;67751;51.986;5.696;2023-04-25T11:39:45;11.4;45.6
78455;SHT31;67751;51.986;5.696;2023-04-25T11:42:15;11.4;47.2
78455;SHT31;67751;51.986;5.696;2023-04-25T11:44:47;11.4;47.7
78455;SHT31;67751;51.986;5.696;2023-04-25T11:47:18;11.5;45.1
78455;SHT31;67751;51.986;5.696;2023-04-25T11:49:48;11.6;47.9
78455;SHT31;67751;51.986;5.696;2023-04-25T11:52:20;11.6;46.0
78455;SHT31;67751;51.986;5.696;2023-04-25T11:54:49;11.7;47.9
78455;SHT31;67751;51.986;5.696;2023-04-25T11:57:20;11.7;49.1
78455;SHT31;67751;51.986;5.696;2023-04-25T11:59:50;11.7;48.6
78455;SHT31;67751;51.986;5.696;2023-04-25T12:02:26;11.6;49.3
78455;SHT31;67751;51.986;5.696;2023-04-25T12:04:58;11.5;49.7
78455;SHT31;67751;51.986;5.696;2023-04-25T12:07:30;11.4;50.8
78455;SHT31;67751;51.986;5.696;2023-04-25T12:10:04;11.3;50.2
78455;SHT31;67751;51.986;5.696;2023-04-25T12:12:35;11.2;52.1
78455;SHT31;67751;51.986;5.696;2023-04-25T12:15:13;11.1;51.0
78455;SHT31;67751;51.986;5.696;2023-04-25T12:17:47;11.1;50.4
78455;SHT31;67751;51.986;5.696;2023-04-25T12:20:20;11.0;49.3
78455;SHT31;67751;51.986;5.696;2023-04-25T12:22:51;11.0;50.9
78455;SHT31;67751;51.986;5.696;2023-04-25T12:25:38;10.9;50.1
78455;SHT31;67751;51.986;5.696;2023-04-25T12:28:14;10.9;49.1
78455;SHT31;67751;51.986;5.696;2023-04-25T12:30:57;10.9;49.5
78455;SHT31;67751;51.986;5.696;2023-04-25T12:33:28;10.9;47.8
78455;SHT31;67751;51.986;5.696;2023-04-25T12:36:00;10.9;50.2
78455;SHT31;67751;51.986;5.696;2023-04-25T12:38:36;10.9;50.0
78455;SHT31;67751;51.986;5.696;2023-04-25T12:41:06;10.9;48.3
78455;SHT31;67751;51.986;5.696;2023-04-25T12:43:36;10.9;48.2
78455;SHT31;67751;51.986;5.696;2023-04-25T12:46:06;11.0;47.5
78455;SHT31;67751;51.986;5.696;2023-04-25T12:48:36;11.0;49.5
78455;SHT31;67751;51.986;5.696;2023-04-25T12:51:05;11.1;47.2
78455;SHT31;67751;51.986;5.696;2023-04-25T12:53:35;11.1;48.6
78455;SHT31;67751;51.986;5.696;2023-04-25T12:56:07;11.1;51.2
78455;SHT31;67751;51.986;5.696;2023-04-25T12:58:37;11.1;51.2
78455;SHT31;67751;51.986;5.696;2023-04-25T13:01:07;11.2;50.7
78455;SHT31;67751;51.986;5.696;2023-04-25T13:03:37;11.3;50.2
78455;SHT31;67751;51.986;5.696;2023-04-25T13:06:07;11.3;48.0
78455;SHT31;67751;51.986;5.696;2023-04-25T13:08:36;11.3;50.8
78455;SHT31;67751;51.986;5.696;2023-04-25T13:11:07;11.4;48.8
78455;SHT31;67751;51.986;5.696;2023-04-25T13:13:37;11.4;49.0
78455;SHT31;67751;51.986;5.696;2023-04-25T13:16:08;11.4;48.2
78455;SHT31;67751;51.986;5.696;2023-04-25T13:18:37;11.4;48.1
78455;SHT31;67751;51.986;5.696;2023-04-25T13:21:09;11.4;46.3
78455;SHT31;67751;51.986;5.696;2023-04-25T13:23:40;11.5;45.5
78455;SHT31;67751;51.986;5.696;2023-04-25T13:26:10;11.5;50.2
78455;SHT31;67751;51.986;5.696;2023-04-25T13:28:39;11.5;46.0
78455;SHT31;67751;51.986;5.696;2023-04-25T13:31:09;11.6;47.6
78455;SHT31;67751;51.986;5.696;2023-04-25T13:33:39;11.6;46.7
78455;SHT31;67751;51.986;5.696;2023-04-25T13:36:10;11.7;48.1
78455;SHT31;67751;51.986;5.696;2023-04-25T13:38:40;11.8;47.1
78455;SHT31;67751;51.986;5.696;2023-04-25T13:41:12;11.8;44.2
78455;SHT31;67751;51.986;5.696;2023-04-25T13:43:46;11.9;43.7
78455;SHT31;67751;51.986;5.696;2023-04-25T13:46:16;11.9;44.1
78455;SHT31;67751;51.986;5.696;2023-04-25T13:48:46;11.9;45.8
78455;SHT31;67751;51.986;5.696;2023-04-25T13:51:17;12.0;43.6
78455;SHT31;67751;51.986;5.696;2023-04-25T13:53:48;12.0;43.3
78455;SHT31;67751;51.986;5.696;2023-04-25T13:56:17;12.0;45.7
78455;SHT31;67751;51.986;5.696;2023-04-25T13:58:48;12.0;42.1
78455;SHT31;67751;51.986;5.696;2023-04-25T14:01:17;12.1;42.6
78455;SHT31;67751;51.986;5.696;2023-04-25T14:03:48;12.1;44.1
78455;SHT31;67751;51.986;5.696;2023-04-25T14:06:18;12.0;45.0
78455;SHT31;67751;51.986;5.696;2023-04-25T14:08:51;12.0;46.7
78455;SHT31;67751;51.986;5.696;2023-04-25T14:11:21;11.9;46.6
78455;SHT31;67751;51.986;5.696;2023-04-25T14:13:52;11.9;46.5
78455;SHT31;67751;51.986;5.696;2023-04-25T14:16:24;11.8;47.0
78455;SHT31;67751;51.986;5.696;2023-04-25T14:18:53;11.7;45.8
78455;SHT31;67751;51.986;5.696;2023-04-25T14:21:24;11.7;44.6
78455;SHT31;67751;51.986;5.696;2023-04-25T14:23:54;11.6;45.0
78455;SHT31;67751;51.986;5.696;2023-04-25T14:26:24;11.6;43.6
78455;SHT31;67751;51.986;5.696;2023-04-25T14:28:53;11.6;45.3
78455;SHT31;67751;51.986;5.696;2023-04-25T14:31:23;11.6;44.5
78455;SHT31;67751;51.986;5.696;2023-04-25T14:33:53;11.5;47.2
78455;SHT31;67751;51.986;5.696;2023-04-25T14:36:23;11.5;46.1
78455;SHT31;67751;51.986;5.696;2023-04-25T14:38:54;11.6;45.0
78455;SHT31;67751;51.986;5.696;2023-04-25T14:41:24;11.6;47.2
78455;SHT31;67751;51.986;5.696;2023-04-25T14:43:56;11.6;45.9
78455;SHT31;67751;51.986;5.696;2023-04-25T14:46:26;11.6;46.4
78455;SHT31;67751;51.986;5.696;2023-04-25T14:48:56;11.6;45.2
78455;SHT31;67751;51.986;5.696;2023-04-25T14:51:25;11.7;46.3
78455;SHT31;67751;51.986;5.696;2023-04-25T14:53:55;11.7;44.5
78455;SHT31;67751;51.986;5.696;2023-04-25T14:56:25;11.7;43.0
78455;SHT31;67751;51.986;5.696;2023-04-25T14:58:54;11.8;42.6
78455;SHT31;67751;51.986;5.696;2023-04-25T15:01:24;11.8;43.3
78455;SHT31;67751;51.986;5.696;2023-04-25T15:03:56;11.8;42.4
78455;SHT31;67751;51.986;5.696;2023-04-25T15:06:25;11.8;42.0
78455;SHT31;67751;51.986;5.696;2023-04-25T15:08:57;11.8;43.5
78455;SHT31;67751;51.986;5.696;2023-04-25T15:11:27;11.8;42.4
78455;SHT31;67751;51.986;5.696;2023-04-25T15:13:57;11.8;42.5
78455;SHT31;67751;51.986;5.696;2023-04-25T15:16:27;11.8;44.0
78455;SHT31;67751;51.986;5.696;2023-04-25T15:18:58;11.8;43.4
78455;SHT31;67751;51.986;5.696;2023-04-25T15:21:31;11.7;45.2
78455;SHT31;67751;51.986;5.696;2023-04-25T15:24:01;11.7;45.5
78455;SHT31;67751;51.986;5.696;2023-04-25T15:26:31;11.7;46.2
78455;SHT31;67751;51.986;5.696;2023-04-25T15:29:00;11.7;46.8
78455;SHT31;67751;51.986;5.696;2023-04-25T15:31:31;11.6;45.8
78455;SHT31;67751;51.986;5.696;2023-04-25T15:34:01;11.6;47.0
78455;SHT31;67751;51.986;5.696;2023-04-25T15:36:31;11.6;45.7
78455;SHT31;67751;51.986;5.696;2023-04-25T15:39:00;11.6;46.5
78455;SHT31;67751;51.986;5.696;2023-04-25T15:41:30;11.5;46.2
78455;SHT31;67751;51.986;5.696;2023-04-25T15:44:00;11.5;45.3
78455;SHT31;67751;51.986;5.696;2023-04-25T15:46:30;11.5;46.1
78455;SHT31;67751;51.986;5.696;2023-04-25T15:48:59;11.5;45.5
78455;SHT31;67751;51.986;5.696;2023-04-25T15:51:29;11.5;45.3
78455;SHT31;67751;51.986;5.696;2023-04-25T15:54:00;11.5;45.7
78455;SHT31;67751;51.986;5.696;2023-04-25T15:56:30;11.5;44.6
78455;SHT31;67751;51.986;5.696;2023-04-25T15:59:00;11.5;43.4
78455;SHT31;67751;51.986;5.696;2023-04-25T16:01:30;11.5;44.9
78455;SHT31;67751;51.986;5.696;2023-04-25T16:04:00;11.5;44.7
78455;SHT31;67751;51.986;5.696;2023-04-25T16:06:29;11.4;43.8
78455;SHT31;67751;51.986;5.696;2023-04-25T16:09:01;11.4;44.6
78455;SHT31;67751;51.986;5.696;2023-04-25T16:11:33;11.4;44.7
78455;SHT31;67751;51.986;5.696;2023-04-25T16:14:02;11.4;44.4
78455;SHT31;67751;51.986;5.696;2023-04-25T16:16:32;11.3;44.5
78455;SHT31;67751;51.986;5.696;2023-04-25T16:19:02;11.3;46.0
78455;SHT31;67751;51.986;5.696;2023-04-25T16:21:31;11.2;46.1
78455;SHT31;67751;51.986;5.696;2023-04-25T16:24:01;11.2;44.3
78455;SHT31;67751;51.986;5.696;2023-04-25T16:26:31;11.2;47.2
78455;SHT31;67751;51.986;5.696;2023-04-25T16:29:02;11.1;46.7
78455;SHT31;67751;51.986;5.696;2023-04-25T16:31:33;11.1;48.5